createdAt,value
2023-01-28T00:01:17.105Z,5.40
2023-01-28T00:03:45.009Z,5.42
2023-01-28T00:06:16.074Z,5.43
2023-01-28T00:08:43.408Z,5.44
2023-01-28T00:11:13.870Z,5.44
2023-01-28T00:13:42.204Z,5.44
2023-01-28T00:16:10.165Z,5.46
2023-01-28T00:18:38.110Z,5.47
2023-01-28T00:21:12.798Z,5.46
2023-01-28T00:23:43.115Z,5.44
2023-01-28T00:26:15.870Z,5.39
2023-01-28T00:28:43.347Z,5.37
2023-01-28T00:31:19.235Z,5.33
2023-01-28T00:33:48.629Z,5.31
2023-01-28T00:36:17.119Z,5.30
2023-01-28T00:38:50.616Z,5.27
2023-01-28T00:41:23.737Z,5.25
2023-01-28T00:43:51.946Z,5.24
2023-01-28T00:46:20.135Z,5.22
2023-01-28T00:48:47.735Z,5.22
2023-01-28T00:51:17.500Z,5.23
2023-01-28T00:53:45.028Z,5.23
2023-01-28T00:56:19.513Z,5.24
2023-01-28T00:58:47.222Z,5.23
2023-01-28T01:01:22.071Z,5.21
2023-01-28T01:03:57.473Z,5.19
2023-01-28T01:06:25.791Z,5.16
2023-01-28T01:08:52.830Z,5.16
2023-01-28T01:11:20.304Z,5.14
2023-01-28T01:14:00.232Z,5.14
2023-01-28T01:16:32.152Z,5.11
2023-01-28T01:19:00.357Z,5.12
2023-01-28T01:21:31.353Z,5.12
2023-01-28T01:23:58.698Z,5.14
2023-01-28T01:26:27.671Z,5.13
2023-01-28T01:28:54.739Z,5.13
2023-01-28T01:31:22.925Z,5.15
2023-01-28T01:33:52.664Z,5.16
2023-01-28T01:36:21.881Z,5.19
2023-01-28T01:38:54.268Z,5.22
2023-01-28T01:41:32.803Z,5.20
2023-01-28T01:44:05.181Z,5.19
2023-01-28T01:46:49.313Z,5.19
2023-01-28T01:49:26.887Z,5.20
2023-01-28T01:52:28.407Z,5.22
2023-01-28T01:54:59.339Z,5.22
2023-01-28T01:57:33.648Z,5.22
2023-01-28T02:00:06.400Z,5.21
2023-01-28T02:02:42.027Z,5.21
2023-01-28T02:05:10.891Z,5.19
2023-01-28T02:07:38.773Z,5.17
2023-01-28T02:10:07.976Z,5.17
2023-01-28T02:12:43.329Z,5.17
2023-01-28T02:15:16.809Z,5.15
2023-01-28T02:17:44.786Z,5.13
2023-01-28T02:20:25.817Z,5.12
2023-01-28T02:23:33.292Z,5.10
2023-01-28T02:26:12.214Z,5.07
2023-01-28T02:28:48.907Z,5.06
2023-01-28T02:31:34.545Z,5.05
2023-01-28T02:34:24.873Z,5.05
2023-01-28T02:37:14.982Z,5.06
2023-01-28T02:40:06.114Z,5.06
2023-01-28T02:42:37.551Z,5.05
2023-01-28T02:45:17.702Z,5.05
2023-01-28T02:48:00.007Z,5.04
2023-01-28T02:50:42.560Z,5.03
2023-01-28T02:53:41.389Z,5.00
2023-01-28T02:56:30.891Z,5.00
2023-01-28T02:59:28.521Z,4.98
2023-01-28T03:02:26.413Z,4.97
2023-01-28T03:05:02.127Z,4.96
2023-01-28T03:07:33.481Z,4.94
2023-01-28T03:10:08.958Z,4.93
2023-01-28T03:13:00.774Z,4.89
2023-01-28T03:16:00.231Z,4.89
2023-01-28T03:19:08.947Z,4.87
2023-01-28T03:22:03.554Z,4.85
2023-01-28T03:25:04.710Z,4.84
2023-01-28T03:28:07.700Z,4.85
2023-01-28T03:31:23.561Z,4.86
2023-01-28T03:34:11.650Z,4.87
2023-01-28T03:36:49.493Z,4.86
2023-01-28T03:39:18.963Z,4.83
2023-01-28T03:42:09.872Z,4.79
2023-01-28T03:44:52.837Z,4.76
2023-01-28T03:47:27.480Z,4.74
2023-01-28T03:49:56.859Z,4.72
2023-01-28T03:52:31.070Z,4.70
2023-01-28T03:54:58.392Z,4.72
2023-01-28T03:57:28.359Z,4.74
2023-01-28T03:59:55.705Z,4.76
2023-01-28T04:02:23.969Z,4.76
2023-01-28T04:04:51.319Z,4.76
2023-01-28T04:07:18.662Z,4.76
2023-01-28T04:09:45.877Z,4.76
2023-01-28T04:12:13.016Z,4.75
2023-01-28T04:14:40.267Z,4.76
2023-01-28T04:17:10.750Z,4.77
2023-01-28T04:19:41.100Z,4.77
2023-01-28T04:22:11.565Z,4.78
2023-01-28T04:24:38.596Z,4.78
2023-01-28T04:27:05.661Z,4.77
2023-01-28T04:29:32.869Z,4.76
2023-01-28T04:31:59.942Z,4.75
2023-01-28T04:34:30.053Z,4.75
2023-01-28T04:36:57.903Z,4.74
2023-01-28T04:39:25.187Z,4.72
2023-01-28T04:41:52.328Z,4.70
2023-01-28T04:44:19.517Z,4.71
2023-01-28T04:46:46.685Z,4.71
2023-01-28T04:49:13.746Z,4.72
2023-01-28T04:51:40.908Z,4.73
2023-01-28T04:54:08.193Z,4.73
2023-01-28T04:56:35.233Z,4.72
2023-01-28T04:59:02.853Z,4.71
2023-01-28T05:01:30.293Z,4.70
2023-01-28T05:03:57.977Z,4.69
2023-01-28T05:06:25.234Z,4.67
2023-01-28T05:08:52.498Z,4.67
2023-01-28T05:11:19.527Z,4.67
2023-01-28T05:13:46.696Z,4.67
2023-01-28T05:16:13.960Z,4.65
2023-01-28T05:18:43.764Z,4.65
2023-01-28T05:21:11.963Z,4.66
2023-01-28T05:23:39.145Z,4.66
2023-01-28T05:26:06.493Z,4.66
2023-01-28T05:28:33.783Z,4.66
2023-01-28T05:31:07.473Z,4.66
2023-01-28T05:33:34.679Z,4.63
2023-01-28T05:36:02.094Z,4.59
2023-01-28T05:38:29.179Z,4.56
2023-01-28T05:40:56.323Z,4.57
2023-01-28T05:43:23.435Z,4.56
2023-01-28T05:45:50.581Z,4.58
2023-01-28T05:48:17.837Z,4.55
2023-01-28T05:50:48.001Z,4.52
2023-01-28T05:53:15.174Z,4.55
2023-01-28T05:55:42.269Z,4.56
2023-01-28T05:58:09.411Z,4.58
2023-01-28T06:00:36.706Z,4.58
2023-01-28T06:03:03.940Z,4.58
2023-01-28T06:05:31.216Z,4.57
2023-01-28T06:07:58.379Z,4.56
2023-01-28T06:10:25.641Z,4.56
2023-01-28T06:12:52.688Z,4.55
2023-01-28T06:15:19.857Z,4.56
2023-01-28T06:17:47.052Z,4.55
2023-01-28T06:20:14.423Z,4.53
2023-01-28T06:22:42.050Z,4.52
2023-01-28T06:25:09.789Z,4.51
2023-01-28T06:27:37.377Z,4.49
2023-01-28T06:30:05.100Z,4.46
2023-01-28T06:32:32.627Z,4.47
2023-01-28T06:34:59.892Z,4.46
2023-01-28T06:37:27.301Z,4.41
2023-01-28T06:39:54.537Z,4.41
2023-01-28T06:42:22.224Z,4.39
2023-01-28T06:44:49.427Z,4.41
2023-01-28T06:47:16.739Z,4.40
2023-01-28T06:49:43.905Z,4.40
2023-01-28T06:52:10.927Z,4.39
2023-01-28T06:54:38.122Z,4.38
2023-01-28T06:57:05.420Z,4.36
2023-01-28T06:59:32.667Z,4.36
2023-01-28T07:01:59.742Z,4.34
2023-01-28T07:04:27.024Z,4.36
2023-01-28T07:06:54.076Z,4.36
2023-01-28T07:09:21.236Z,4.36
2023-01-28T07:11:48.468Z,4.34
2023-01-28T07:14:15.723Z,4.36
2023-01-28T07:16:42.972Z,4.38
2023-01-28T07:19:10.727Z,4.38
2023-01-28T07:21:38.072Z,4.41
2023-01-28T07:24:06.249Z,4.42
2023-01-28T07:26:33.516Z,4.41
2023-01-28T07:29:00.621Z,4.36
2023-01-28T07:31:27.849Z,4.34
2023-01-28T07:33:55.238Z,4.33
2023-01-28T07:36:22.415Z,4.31
2023-01-28T07:38:49.615Z,4.31
2023-01-28T07:41:16.944Z,4.31
2023-01-28T07:43:44.340Z,4.30
2023-01-28T07:46:11.654Z,4.28
2023-01-28T07:48:38.670Z,4.29
2023-01-28T07:51:05.913Z,4.30
2023-01-28T07:53:33.016Z,4.31
2023-01-28T07:56:01.912Z,4.32
2023-01-28T07:58:29.314Z,4.35
2023-01-28T08:00:59.138Z,4.38
2023-01-28T08:03:27.447Z,4.40
2023-01-28T08:05:56.617Z,4.42
2023-01-28T08:08:25.713Z,4.42
2023-01-28T08:10:53.742Z,4.41
2023-01-28T08:13:20.780Z,4.40
2023-01-28T08:15:48.128Z,4.39
2023-01-28T08:18:16.841Z,4.41
2023-01-28T08:20:47.336Z,4.45
2023-01-28T08:23:19.629Z,4.47
2023-01-28T08:25:47.396Z,4.51
2023-01-28T08:28:16.834Z,4.46
2023-01-28T08:30:44.608Z,4.43
2023-01-28T08:33:15.020Z,4.45
2023-01-28T08:35:42.496Z,4.49
2023-01-28T08:38:16.661Z,4.55
2023-01-28T08:40:43.862Z,4.60
2023-01-28T08:43:11.231Z,4.66
2023-01-28T08:45:40.491Z,4.74
2023-01-28T08:48:11.266Z,4.84
2023-01-28T08:50:40.181Z,4.87
2023-01-28T08:53:17.661Z,4.95
2023-01-28T08:55:46.398Z,5.03
2023-01-28T08:58:16.821Z,5.08
2023-01-28T09:00:47.177Z,5.14
2023-01-28T09:03:14.514Z,5.18
2023-01-28T09:05:41.771Z,5.24
2023-01-28T09:08:15.007Z,5.35
2023-01-28T09:10:42.478Z,5.48
2023-01-28T09:13:15.807Z,5.61
2023-01-28T09:15:43.470Z,5.63
2023-01-28T09:18:11.460Z,5.62
2023-01-28T09:20:39.230Z,5.65
2023-01-28T09:23:06.798Z,5.73
2023-01-28T09:25:36.419Z,5.84
2023-01-28T09:28:04.820Z,5.91
2023-01-28T09:30:34.859Z,5.95
2023-01-28T09:33:03.350Z,5.96
2023-01-28T09:35:30.667Z,5.98
2023-01-28T09:37:59.194Z,5.91
2023-01-28T09:40:41.003Z,5.88
2023-01-28T09:43:34.983Z,5.96
2023-01-28T09:46:06.464Z,6.06
2023-01-28T09:48:43.300Z,6.12
2023-01-28T09:51:32.277Z,6.11
2023-01-28T09:54:11.382Z,6.02
2023-01-28T09:56:46.484Z,5.94
2023-01-28T09:59:22.683Z,5.90
2023-01-28T10:02:01.560Z,5.85
2023-01-28T10:04:54.657Z,5.82
2023-01-28T10:07:50.258Z,5.78
2023-01-28T10:10:27.692Z,5.77
2023-01-28T10:13:24.844Z,5.84
2023-01-28T10:16:10.098Z,5.86
2023-01-28T10:18:51.043Z,5.86
2023-01-28T10:21:39.180Z,5.84
2023-01-28T10:24:21.541Z,5.82
2023-01-28T10:26:48.929Z,5.80
2023-01-28T10:29:24.489Z,5.78
2023-01-28T10:32:02.769Z,5.77
2023-01-28T10:34:29.874Z,5.72
2023-01-28T10:36:58.744Z,5.65
2023-01-28T10:39:28.670Z,5.62
2023-01-28T10:41:58.737Z,5.64
2023-01-28T10:44:38.900Z,5.68
2023-01-28T10:47:29.886Z,5.73
2023-01-28T10:50:02.362Z,5.75
2023-01-28T10:52:29.605Z,5.74
2023-01-28T10:55:06.029Z,5.78
2023-01-28T10:57:42.982Z,5.78
2023-01-28T11:00:25.921Z,5.82
2023-01-28T11:02:55.069Z,5.81
2023-01-28T11:05:29.219Z,5.81
2023-01-28T11:08:07.182Z,5.87
2023-01-28T11:10:40.569Z,5.90
2023-01-28T11:13:29.479Z,5.86
2023-01-28T11:16:03.087Z,5.85
2023-01-28T11:19:00.993Z,5.83
2023-01-28T11:21:32.220Z,5.81
2023-01-28T11:24:14.202Z,5.76
2023-01-28T11:26:49.430Z,5.71
2023-01-28T11:29:43.503Z,5.73
2023-01-28T11:32:22.415Z,5.73
2023-01-28T11:34:52.907Z,5.77
2023-01-28T11:37:22.995Z,5.81
2023-01-28T11:40:21.518Z,5.83
2023-01-28T11:42:52.395Z,5.86
2023-01-28T11:45:53.055Z,5.95
2023-01-28T11:48:52.873Z,6.06
2023-01-28T11:51:45.901Z,6.16
2023-01-28T11:54:12.854Z,6.28
2023-01-28T11:56:50.311Z,6.35
2023-01-28T11:59:44.392Z,6.47
2023-01-28T12:03:04.167Z,6.55
2023-01-28T12:05:34.062Z,6.55
2023-01-28T12:08:06.874Z,6.62
2023-01-28T12:10:58.431Z,6.69
2023-01-28T12:13:34.454Z,6.76
2023-01-28T12:16:26.621Z,6.79
2023-01-28T12:19:33.576Z,6.85
2023-01-28T12:22:34.673Z,6.88
2023-01-28T12:25:54.167Z,6.85
2023-01-28T12:28:36.174Z,6.88
2023-01-28T12:31:47.133Z,6.90
2023-01-28T12:34:44.541Z,6.84
2023-01-28T12:37:50.349Z,6.76
2023-01-28T12:40:43.289Z,6.72
2023-01-28T12:43:44.912Z,6.73
2023-01-28T12:46:37.085Z,6.76
2023-01-28T12:49:27.561Z,6.79
2023-01-28T12:52:11.075Z,6.80
2023-01-28T12:54:49.840Z,6.89
2023-01-28T12:57:27.289Z,6.95
2023-01-28T13:00:27.381Z,6.94
2023-01-28T13:03:35.470Z,6.95
2023-01-28T13:06:18.493Z,6.86
2023-01-28T13:08:45.497Z,6.81
2023-01-28T13:11:17.871Z,6.75
2023-01-28T13:13:46.634Z,6.69
2023-01-28T13:16:14.579Z,6.62
2023-01-28T13:18:46.761Z,6.60
2023-01-28T13:21:25.837Z,6.63
2023-01-28T13:24:19.203Z,6.75
2023-01-28T13:26:57.418Z,6.90
2023-01-28T13:29:24.263Z,7.02
2023-01-28T13:32:01.721Z,7.15
2023-01-28T13:34:40.857Z,7.19
2023-01-28T13:37:32.403Z,7.22
2023-01-28T13:40:21.825Z,7.10
2023-01-28T13:43:06.617Z,6.92
2023-01-28T13:45:34.482Z,6.74
2023-01-28T13:48:23.133Z,6.59
2023-01-28T13:50:54.368Z,6.49
2023-01-28T13:53:37.011Z,6.40
2023-01-28T13:56:17.841Z,6.37
2023-01-28T13:59:32.550Z,6.36
2023-01-28T14:02:21.189Z,6.39
2023-01-28T14:05:15.581Z,6.40
2023-01-28T14:08:22.192Z,6.40
2023-01-28T14:11:45.409Z,6.36
2023-01-28T14:14:37.813Z,6.25
2023-01-28T14:17:51.053Z,6.11
2023-01-28T14:20:27.451Z,5.93
2023-01-28T14:23:02.586Z,5.71
2023-01-28T14:25:55.619Z,5.57
2023-01-28T14:29:00.072Z,5.45
2023-01-28T14:31:37.743Z,5.40
2023-01-28T14:34:13.840Z,5.40
2023-01-28T14:36:44.339Z,5.38
2023-01-28T14:39:28.776Z,5.36
2023-01-28T14:42:02.975Z,5.35
2023-01-28T14:44:32.808Z,5.31
2023-01-28T14:47:18.126Z,5.29
2023-01-28T14:50:23.913Z,5.28
2023-01-28T14:53:41.991Z,5.26
2023-01-28T14:56:36.718Z,5.24
2023-01-28T14:59:32.700Z,5.29
2023-01-28T15:02:00.517Z,5.36
2023-01-28T15:04:34.000Z,5.46
2023-01-28T15:07:31.373Z,5.54
2023-01-28T15:10:08.234Z,5.61
2023-01-28T15:12:42.859Z,5.67
2023-01-28T15:15:28.596Z,5.72
2023-01-28T15:18:21.407Z,5.71
2023-01-28T15:20:53.205Z,5.68
2023-01-28T15:23:36.777Z,5.62
2023-01-28T15:26:27.416Z,5.60
2023-01-28T15:28:56.101Z,5.62
2023-01-28T15:31:28.851Z,5.64
2023-01-28T15:34:16.564Z,5.64
2023-01-28T15:36:43.965Z,5.63
2023-01-28T15:39:20.998Z,5.61
2023-01-28T15:42:02.197Z,5.54
2023-01-28T15:44:47.041Z,5.45
2023-01-28T15:47:35.390Z,5.39
2023-01-28T15:50:08.402Z,5.33
2023-01-28T15:52:42.141Z,5.31
2023-01-28T15:55:31.032Z,5.28
2023-01-28T15:58:08.578Z,5.25
2023-01-28T16:00:36.158Z,5.21
2023-01-28T16:03:09.812Z,5.19
2023-01-28T16:05:53.674Z,5.16
2023-01-28T16:08:39.393Z,5.11
2023-01-28T16:11:09.619Z,5.05
2023-01-28T16:13:43.884Z,4.95
2023-01-28T16:16:12.316Z,4.83
2023-01-28T16:18:51.869Z,4.69
2023-01-28T16:21:34.581Z,4.52
2023-01-28T16:24:30.214Z,4.37
2023-01-28T16:27:02.871Z,4.21
2023-01-28T16:29:31.414Z,4.08
2023-01-28T16:32:00.120Z,3.99
2023-01-28T16:34:27.964Z,3.87
2023-01-28T16:37:02.220Z,3.75
2023-01-28T16:39:30.327Z,3.63
2023-01-28T16:41:58.434Z,3.51
2023-01-28T16:44:25.628Z,3.40
2023-01-28T16:46:52.812Z,3.30
2023-01-28T16:49:19.885Z,3.22
2023-01-28T16:51:47.040Z,3.16
2023-01-28T16:54:16.613Z,3.09
2023-01-28T16:56:46.253Z,3.03
2023-01-28T16:59:16.322Z,2.97
2023-01-28T17:01:45.338Z,2.89
2023-01-28T17:04:13.525Z,2.80
2023-01-28T17:06:45.178Z,2.73
2023-01-28T17:09:14.513Z,2.66
2023-01-28T17:11:41.975Z,2.57
2023-01-28T17:14:11.343Z,2.52
2023-01-28T17:16:39.070Z,2.45
2023-01-28T17:19:06.731Z,2.39
2023-01-28T17:21:34.057Z,2.31
2023-01-28T17:24:01.995Z,2.25
2023-01-28T17:26:29.221Z,2.19
2023-01-28T17:28:56.393Z,2.15
2023-01-28T17:31:26.606Z,2.12
2023-01-28T17:33:58.959Z,2.06
2023-01-28T17:36:27.743Z,1.99
2023-01-28T17:38:55.478Z,1.95
2023-01-28T17:41:22.901Z,1.90
2023-01-28T17:43:55.055Z,1.85
2023-01-28T17:46:24.853Z,1.82
2023-01-28T17:48:52.203Z,1.79
2023-01-28T17:51:20.727Z,1.76
2023-01-28T17:53:50.565Z,1.73
2023-01-28T17:56:23.687Z,1.69
2023-01-28T17:58:53.486Z,1.65
2023-01-28T18:01:22.514Z,1.63
2023-01-28T18:03:50.076Z,1.61
2023-01-28T18:06:17.270Z,1.58
2023-01-28T18:08:44.624Z,1.54
2023-01-28T18:11:15.693Z,1.53
2023-01-28T18:13:43.605Z,1.50
2023-01-28T18:16:16.036Z,1.47
2023-01-28T18:18:43.168Z,1.44
2023-01-28T18:21:42.897Z,1.40
2023-01-28T18:24:13.887Z,1.37
2023-01-28T18:26:41.267Z,1.34
2023-01-28T18:29:08.393Z,1.33
2023-01-28T18:31:35.605Z,1.31
2023-01-28T18:34:03.561Z,1.29
2023-01-28T18:36:30.841Z,1.27
2023-01-28T18:38:57.876Z,1.25
2023-01-28T18:41:24.891Z,1.22
2023-01-28T18:43:51.895Z,1.20
2023-01-28T18:46:19.482Z,1.16
2023-01-28T18:48:46.511Z,1.13
2023-01-28T18:51:28.968Z,1.09
2023-01-28T18:54:03.967Z,1.06
2023-01-28T18:56:32.291Z,1.04
2023-01-28T18:59:02.761Z,1.02
2023-01-28T19:01:31.968Z,1.00
2023-01-28T19:03:59.995Z,1.00
2023-01-28T19:06:30.210Z,0.98
2023-01-28T19:09:02.355Z,0.94
2023-01-28T19:11:30.935Z,0.93
2023-01-28T19:13:58.166Z,0.91
2023-01-28T19:16:25.799Z,0.89
2023-01-28T19:19:00.005Z,0.86
2023-01-28T19:21:29.488Z,0.85
2023-01-28T19:24:07.075Z,0.82
2023-01-28T19:26:34.539Z,0.80
2023-01-28T19:29:04.680Z,0.78
2023-01-28T19:31:31.794Z,0.74
2023-01-28T19:34:00.561Z,0.73
2023-01-28T19:36:31.462Z,0.69
2023-01-28T19:39:01.168Z,0.64
2023-01-28T19:41:29.677Z,0.37
2023-01-28T19:43:57.924Z,0.33
2023-01-28T19:46:25.507Z,0.36
2023-01-28T19:48:52.809Z,0.40
2023-01-28T19:51:20.698Z,0.31
2023-01-28T19:53:52.046Z,0.36
2023-01-28T19:56:20.601Z,0.29
2023-01-28T19:58:48.020Z,0.39
2023-01-28T20:01:22.434Z,0.44
2023-01-28T20:03:59.293Z,0.42
2023-01-28T20:06:30.059Z,0.26
2023-01-28T20:09:19.759Z,0.22
2023-01-28T20:11:47.171Z,0.19
2023-01-28T20:14:16.151Z,0.17
2023-01-28T20:16:43.530Z,0.17
2023-01-28T20:19:17.841Z,0.14
2023-01-28T20:21:45.937Z,0.14
2023-01-28T20:24:14.906Z,0.17
2023-01-28T20:26:44.109Z,0.18
2023-01-28T20:29:22.378Z,0.23
2023-01-28T20:32:08.902Z,0.24
2023-01-28T20:34:45.984Z,0.32
2023-01-28T20:37:13.388Z,0.46
2023-01-28T20:39:40.479Z,0.37
2023-01-28T20:42:09.458Z,0.31
2023-01-28T20:44:36.959Z,0.36
2023-01-28T20:47:04.067Z,0.23
2023-01-28T20:49:31.329Z,0.27
2023-01-28T20:51:58.890Z,0.33
2023-01-28T20:54:26.299Z,0.32
2023-01-28T20:56:53.874Z,0.24
2023-01-28T20:59:21.354Z,0.28
2023-01-28T21:01:48.627Z,0.20
2023-01-28T21:04:17.150Z,0.14
2023-01-28T21:06:44.113Z,0.11
2023-01-28T21:09:11.323Z,0.03
2023-01-28T21:11:38.707Z,0.10
2023-01-28T21:14:06.224Z,0.13
2023-01-28T21:16:33.381Z,0.09
2023-01-28T21:19:00.783Z,0.05
2023-01-28T21:21:29.245Z,-0.04
2023-01-28T21:24:00.569Z,0.00
2023-01-28T21:26:28.593Z,-0.10
2023-01-28T21:28:58.387Z,-0.17
2023-01-28T21:31:26.926Z,-0.18
2023-01-28T21:33:58.374Z,-0.13
2023-01-28T21:36:26.735Z,-0.17
2023-01-28T21:38:57.574Z,-0.24
2023-01-28T21:41:25.502Z,-0.15
2023-01-28T21:43:54.400Z,-0.22
2023-01-28T21:46:27.244Z,-0.25
2023-01-28T21:49:00.657Z,-0.21
2023-01-28T21:51:46.424Z,-0.22
2023-01-28T21:54:19.412Z,-0.24
2023-01-28T21:56:49.546Z,-0.28
2023-01-28T21:59:30.773Z,-0.28
2023-01-28T22:02:01.523Z,-0.29
2023-01-28T22:04:35.022Z,-0.30
2023-01-28T22:07:04.067Z,-0.30
2023-01-28T22:09:33.416Z,-0.31
2023-01-28T22:12:03.689Z,-0.35
2023-01-28T22:14:31.128Z,-0.35
2023-01-28T22:16:58.579Z,-0.36
2023-01-28T22:19:26.168Z,-0.36
2023-01-28T22:21:53.160Z,-0.38
2023-01-28T22:24:24.374Z,-0.39
2023-01-28T22:26:53.485Z,-0.38
2023-01-28T22:29:22.731Z,-0.40
2023-01-28T22:31:52.773Z,-0.49
2023-01-28T22:34:22.353Z,-0.47
2023-01-28T22:36:51.125Z,-0.51
2023-01-28T22:39:18.883Z,-0.51
2023-01-28T22:41:46.878Z,-0.49
2023-01-28T22:44:14.516Z,-0.51
2023-01-28T22:46:42.138Z,-0.53
2023-01-28T22:49:12.048Z,-0.52
2023-01-28T22:51:39.502Z,-0.63
2023-01-28T22:54:06.632Z,-0.58
2023-01-28T22:56:33.850Z,-0.61
2023-01-28T22:59:03.878Z,-0.61
2023-01-28T23:01:32.294Z,-0.71
2023-01-28T23:03:59.858Z,-0.69
2023-01-28T23:06:28.523Z,-0.74
2023-01-28T23:08:56.540Z,-0.67
2023-01-28T23:11:25.449Z,-0.70
2023-01-28T23:14:19.924Z,-0.71
2023-01-28T23:17:06.631Z,-0.72
2023-01-28T23:19:53.060Z,-0.72
2023-01-28T23:22:47.547Z,-0.74
2023-01-28T23:25:18.092Z,-0.76
2023-01-28T23:27:45.777Z,-0.78
2023-01-28T23:30:13.791Z,-0.81
2023-01-28T23:32:47.064Z,-0.84
2023-01-28T23:35:15.071Z,-0.87
2023-01-28T23:37:42.254Z,-0.89
2023-01-28T23:40:10.555Z,-0.93
2023-01-28T23:42:37.643Z,-0.89
2023-01-28T23:45:05.842Z,-0.85
2023-01-28T23:47:33.501Z,-0.84
2023-01-28T23:50:00.735Z,-0.85
2023-01-28T23:52:27.934Z,-0.85
2023-01-28T23:54:55.011Z,-0.87
2023-01-28T23:57:22.138Z,-0.87
2023-01-28T23:59:49.426Z,-0.91
